createdAt,value
2023-03-15T00:02:11.126Z,2.8
2023-03-15T00:17:20.203Z,2.7
2023-03-15T00:32:29.937Z,2.8
2023-03-15T00:47:40.272Z,2.9
2023-03-15T01:02:50.425Z,2.7
2023-03-15T01:18:00.854Z,2.5
2023-03-15T01:33:10.399Z,2.7
2023-03-15T01:48:19.491Z,2.5
2023-03-15T02:03:28.353Z,2.3
2023-03-15T02:18:37.849Z,2.7
2023-03-15T02:33:47.281Z,3
2023-03-15T02:48:57.188Z,2.5
2023-03-15T03:04:06.513Z,2.2
2023-03-15T03:19:15.797Z,3
2023-03-15T03:34:25.242Z,4.2
2023-03-15T03:49:35.020Z,3.9
2023-03-15T04:04:44.613Z,4.5
2023-03-15T04:19:53.700Z,4.1
2023-03-15T04:35:03.807Z,4.4
2023-03-15T04:50:13.472Z,5.3
2023-03-15T05:05:23.305Z,4.7
2023-03-15T05:20:33.164Z,4.5
2023-03-15T05:35:42.884Z,5.2
2023-03-15T05:50:52.894Z,5.7
2023-03-15T06:06:02.521Z,4.7
2023-03-15T06:21:11.844Z,4.6
2023-03-15T06:36:21.361Z,5.6
2023-03-15T06:51:33.521Z,4.9
2023-03-15T07:06:44.212Z,4.8
2023-03-15T07:21:53.618Z,5.4
2023-03-15T07:37:03.153Z,4.3
2023-03-15T07:52:12.797Z,3.9
2023-03-15T08:07:23.015Z,4.4
2023-03-15T08:22:38.141Z,3.3
2023-03-15T08:37:49.418Z,3.5
2023-03-15T08:52:59.519Z,4
2023-03-15T09:08:09.359Z,3.5
2023-03-15T09:23:20.095Z,3.3
2023-03-15T09:38:29.777Z,2.5
2023-03-15T09:53:44.623Z,2.4
2023-03-15T10:08:54.389Z,2.3
2023-03-15T10:24:04.605Z,2.1
2023-03-15T10:39:14.731Z,2.6
2023-03-15T10:54:24.985Z,2.4
2023-03-15T11:09:34.334Z,2
2023-03-15T11:24:46.824Z,2.2
2023-03-15T11:40:11.982Z,1.8
2023-03-15T11:55:27.414Z,1.8
2023-03-15T12:10:37.438Z,2
2023-03-15T12:25:55.688Z,2.2
2023-03-15T12:41:05.398Z,1.3
2023-03-15T12:56:14.277Z,1.1
2023-03-15T13:11:23.724Z,1.9
2023-03-15T13:26:33.185Z,1.9
2023-03-15T13:41:44.712Z,1.6
2023-03-15T13:56:55.900Z,1.7
2023-03-15T14:12:06.555Z,1.2
2023-03-15T14:27:34.762Z,1.6
2023-03-15T14:42:44.339Z,2
2023-03-15T14:57:53.870Z,1.7
2023-03-15T15:13:07.579Z,1.5
2023-03-15T15:28:36.827Z,2.1
2023-03-15T15:43:47.317Z,1.5
2023-03-15T15:58:57.251Z,3.1
2023-03-15T16:14:11.072Z,1.9
2023-03-15T16:29:18.023Z,1.8
2023-03-15T16:44:32.151Z,2
2023-03-15T16:59:40.252Z,2.3
2023-03-15T17:14:48.676Z,4.1
2023-03-15T17:29:57.775Z,2.7
2023-03-15T17:45:08.000Z,2
2023-03-15T18:00:17.182Z,2.8
2023-03-15T18:15:26.356Z,3.8
2023-03-15T18:30:36.478Z,4.7
2023-03-15T18:45:46.071Z,12.5
2023-03-15T19:00:56.474Z,5.1
2023-03-15T19:16:05.863Z,12.3
2023-03-15T19:31:15.666Z,5.2
2023-03-15T19:46:25.946Z,5.4
2023-03-15T20:01:35.219Z,5.4
2023-03-15T20:16:44.745Z,5.6
2023-03-15T20:31:54.244Z,5
2023-03-15T20:47:03.855Z,5.2
2023-03-15T21:02:20.765Z,5.5
2023-03-15T21:17:31.168Z,5.3
2023-03-15T21:32:59.278Z,5.2
2023-03-15T21:48:27.345Z,4.6
2023-03-15T22:03:37.044Z,4.6
2023-03-15T22:18:46.833Z,3.3
2023-03-15T22:33:56.874Z,2.3
2023-03-15T22:49:06.296Z,3.2
2023-03-15T23:04:18.943Z,3
2023-03-15T23:19:28.828Z,2.4
2023-03-15T23:34:38.510Z,2.9
2023-03-15T23:49:46.750Z,3.1
